createdAt,value
2023-03-27T04:00:23.281Z,3.13
2023-03-27T04:02:55.012Z,3.43
2023-03-27T04:05:26.753Z,3.13
2023-03-27T04:07:58.398Z,3.37
2023-03-27T04:10:30.069Z,3.90
2023-03-27T04:13:01.668Z,3.10
2023-03-27T04:15:34.654Z,2.43
2023-03-27T04:18:06.606Z,3.30
2023-03-27T04:20:38.448Z,3.17
2023-03-27T04:23:10.841Z,2.47
2023-03-27T04:25:42.551Z,2.70
2023-03-27T04:28:14.266Z,3.20
2023-03-27T04:30:47.257Z,2.73
2023-03-27T04:33:19.279Z,3.37
2023-03-27T04:35:50.986Z,3.20
2023-03-27T04:38:38.681Z,2.83
2023-03-27T04:41:10.349Z,2.83
2023-03-27T04:43:42.136Z,3.17
2023-03-27T04:46:15.239Z,3.77
2023-03-27T04:48:46.916Z,3.57
2023-03-27T04:51:18.667Z,3.20
2023-03-27T04:53:50.779Z,3.50
2023-03-27T04:56:22.913Z,3.37
2023-03-27T04:58:54.582Z,3.87
2023-03-27T05:01:27.666Z,3.57
2023-03-27T05:03:59.852Z,3.50
2023-03-27T05:06:31.913Z,3.83
2023-03-27T05:09:04.001Z,4.40
2023-03-27T05:11:36.025Z,3.73
2023-03-27T05:14:07.695Z,3.93
2023-03-27T05:16:40.769Z,3.77
2023-03-27T05:19:12.450Z,4.10
2023-03-27T05:21:44.118Z,3.90
2023-03-27T05:24:16.002Z,4.30
2023-03-27T05:26:47.682Z,3.43
2023-03-27T05:29:19.333Z,3.90
2023-03-27T05:31:52.317Z,4.03
2023-03-27T05:34:24.063Z,3.73
2023-03-27T05:36:55.798Z,4.90
2023-03-27T05:39:27.505Z,3.60
2023-03-27T05:41:59.161Z,4.00
2023-03-27T05:44:30.817Z,3.93
2023-03-27T05:47:03.894Z,3.50
2023-03-27T05:49:35.562Z,3.40
2023-03-27T05:52:07.257Z,3.77
2023-03-27T05:54:38.904Z,3.60
2023-03-27T05:57:10.667Z,4.43
2023-03-27T05:59:42.341Z,3.53
2023-03-27T06:02:15.400Z,3.70
2023-03-27T06:04:47.117Z,3.17
2023-03-27T06:07:18.792Z,3.13
2023-03-27T06:09:50.436Z,3.03
2023-03-27T06:12:22.132Z,3.80
2023-03-27T06:14:53.776Z,3.70
2023-03-27T06:17:26.857Z,3.17
2023-03-27T06:19:58.797Z,3.87
2023-03-27T06:22:30.498Z,4.20
2023-03-27T06:25:02.176Z,3.93
2023-03-27T06:27:33.849Z,3.17
2023-03-27T06:30:06.851Z,3.90
2023-03-27T06:32:44.451Z,3.50
2023-03-27T06:35:16.366Z,3.50
2023-03-27T06:37:50.724Z,3.23
2023-03-27T06:40:23.884Z,3.60
2023-03-27T06:42:56.889Z,2.90
2023-03-27T06:45:29.437Z,2.63
2023-03-27T06:48:15.471Z,2.73
2023-03-27T06:50:52.409Z,2.77
2023-03-27T06:53:28.028Z,2.60
2023-03-27T06:56:00.661Z,3.00
2023-03-27T06:58:32.610Z,3.17
2023-03-27T07:01:04.638Z,3.10
2023-03-27T07:03:37.636Z,2.77
2023-03-27T07:06:09.462Z,2.60
2023-03-27T07:08:41.138Z,2.47
2023-03-27T07:11:12.855Z,2.73
2023-03-27T07:13:44.602Z,2.30
2023-03-27T07:16:16.279Z,2.03
2023-03-27T07:18:49.336Z,2.20
2023-03-27T07:21:20.992Z,2.50
2023-03-27T07:23:53.074Z,2.03
2023-03-27T07:26:24.727Z,2.80
2023-03-27T07:28:56.400Z,2.07
2023-03-27T07:31:41.935Z,1.87
2023-03-27T07:34:21.240Z,2.10
2023-03-27T07:36:52.979Z,1.90
2023-03-27T07:39:24.624Z,2.17
2023-03-27T07:41:56.272Z,2.50
2023-03-27T07:44:27.915Z,2.37
2023-03-27T07:46:59.778Z,2.10
2023-03-27T07:49:39.967Z,2.37
2023-03-27T07:52:13.297Z,2.40
2023-03-27T07:54:45.845Z,2.40
2023-03-27T07:57:17.630Z,2.50
2023-03-27T07:59:49.373Z,2.20
2023-03-27T08:02:21.050Z,1.80
2023-03-27T08:04:54.143Z,1.80
2023-03-27T08:07:25.866Z,2.00
2023-03-27T08:09:57.518Z,2.20
2023-03-27T08:12:30.248Z,2.23
2023-03-27T08:15:01.962Z,2.20
2023-03-27T08:17:33.863Z,2.47
2023-03-27T08:20:08.024Z,2.57
2023-03-27T08:22:39.698Z,2.50
2023-03-27T08:25:11.388Z,2.50
2023-03-27T08:27:43.914Z,2.43
2023-03-27T08:30:17.097Z,2.00
2023-03-27T08:32:49.073Z,2.17
2023-03-27T08:35:22.181Z,2.40
2023-03-27T08:37:53.834Z,2.00
2023-03-27T08:40:26.951Z,2.23
2023-03-27T08:43:02.248Z,2.07
2023-03-27T08:45:37.215Z,2.23
2023-03-27T08:48:10.961Z,2.30
2023-03-27T08:50:45.889Z,2.33
2023-03-27T08:53:19.839Z,1.90
2023-03-27T08:55:51.541Z,2.07
2023-03-27T08:58:23.196Z,2.00
2023-03-27T09:00:58.550Z,2.00
2023-03-27T09:03:32.419Z,1.77
2023-03-27T09:06:07.296Z,1.80
2023-03-27T09:08:43.224Z,2.33
2023-03-27T09:11:21.831Z,2.23
2023-03-27T09:13:53.832Z,2.30
2023-03-27T09:16:26.113Z,2.03
2023-03-27T09:19:01.453Z,2.03
2023-03-27T09:21:37.447Z,2.50
2023-03-27T09:24:13.421Z,2.10
2023-03-27T09:26:45.426Z,2.20
2023-03-27T09:29:19.927Z,2.20
2023-03-27T09:31:53.125Z,2.10
2023-03-27T09:34:25.790Z,2.57
2023-03-27T09:36:59.202Z,2.10
2023-03-27T09:39:31.524Z,2.10
2023-03-27T09:42:07.238Z,2.17
2023-03-27T09:44:39.916Z,2.00
2023-03-27T09:47:12.796Z,2.30
2023-03-27T09:49:46.978Z,1.83
2023-03-27T09:52:35.589Z,2.57
2023-03-27T09:55:23.167Z,1.90
2023-03-27T09:57:55.865Z,2.57
2023-03-27T10:00:29.604Z,2.23
2023-03-27T10:03:02.769Z,1.70
2023-03-27T10:05:34.631Z,1.70
2023-03-27T10:08:27.568Z,2.07
2023-03-27T10:10:59.552Z,2.40
2023-03-27T10:13:31.314Z,2.60
2023-03-27T10:16:04.017Z,2.10
2023-03-27T10:18:35.662Z,2.30
2023-03-27T10:21:09.444Z,2.10
2023-03-27T10:23:43.248Z,2.50
2023-03-27T10:26:17.356Z,2.30
2023-03-27T10:28:49.733Z,1.77
2023-03-27T10:31:26.453Z,1.90
2023-03-27T10:33:59.693Z,2.10
2023-03-27T10:36:35.347Z,2.87
2023-03-27T10:39:10.639Z,2.20
2023-03-27T10:41:42.313Z,2.17
2023-03-27T10:44:15.469Z,2.03
2023-03-27T10:46:47.121Z,2.63
2023-03-27T10:49:23.356Z,2.00
2023-03-27T10:51:58.771Z,2.87
2023-03-27T10:54:36.590Z,2.37
2023-03-27T10:57:11.381Z,2.00
2023-03-27T10:59:44.844Z,2.20
2023-03-27T11:02:18.659Z,2.37
2023-03-27T11:04:52.694Z,2.20
2023-03-27T11:07:25.856Z,2.30
2023-03-27T11:10:02.136Z,2.23
2023-03-27T11:12:34.853Z,1.90
2023-03-27T11:15:11.752Z,2.00
2023-03-27T11:17:46.253Z,1.80
2023-03-27T11:20:22.471Z,1.70
2023-03-27T11:22:57.521Z,2.07
2023-03-27T11:25:35.503Z,1.50
2023-03-27T11:28:13.966Z,2.10
2023-03-27T11:30:46.390Z,2.17
2023-03-27T11:33:27.589Z,1.90
2023-03-27T11:36:05.157Z,1.57
2023-03-27T11:38:37.436Z,1.73
2023-03-27T11:41:14.550Z,1.67
2023-03-27T11:43:46.954Z,1.53
2023-03-27T11:46:26.795Z,1.20
2023-03-27T11:49:04.761Z,1.50
2023-03-27T11:51:43.816Z,1.20
2023-03-27T11:54:21.901Z,1.60
2023-03-27T11:56:55.323Z,1.60
2023-03-27T11:59:42.544Z,1.30
2023-03-27T12:02:37.404Z,1.67
2023-03-27T12:05:09.439Z,2.10
2023-03-27T12:07:48.194Z,2.17
2023-03-27T12:10:28.998Z,1.83
2023-03-27T12:13:38.582Z,2.20
2023-03-27T12:16:24.400Z,3.00
2023-03-27T12:19:08.140Z,2.70
2023-03-27T12:21:51.783Z,2.63
2023-03-27T12:24:34.360Z,2.57
2023-03-27T12:27:25.441Z,2.63
2023-03-27T12:30:03.851Z,2.63
2023-03-27T12:33:03.564Z,2.53
2023-03-27T12:35:37.610Z,1.90
2023-03-27T12:38:12.459Z,2.00
2023-03-27T12:40:49.228Z,1.90
2023-03-27T12:43:24.796Z,1.70
2023-03-27T12:46:15.578Z,1.20
2023-03-27T12:48:49.931Z,1.63
2023-03-27T12:51:36.032Z,1.40
2023-03-27T12:54:29.047Z,1.20
2023-03-27T12:57:02.113Z,1.40
2023-03-27T12:59:35.903Z,1.63
2023-03-27T13:02:47.389Z,1.43
2023-03-27T13:05:29.483Z,1.87
2023-03-27T13:08:28.722Z,1.83
2023-03-27T13:11:02.230Z,1.43
2023-03-27T13:13:57.896Z,1.23
2023-03-27T13:16:36.489Z,1.47
2023-03-27T13:19:15.757Z,1.60
2023-03-27T13:21:57.184Z,1.40
2023-03-27T13:24:36.345Z,1.77
2023-03-27T13:27:17.228Z,1.87
2023-03-27T13:29:49.024Z,1.43
2023-03-27T13:32:34.576Z,1.30
2023-03-27T13:35:31.442Z,1.47
2023-03-27T13:38:04.466Z,1.40
2023-03-27T13:40:36.826Z,1.70
2023-03-27T13:43:21.604Z,1.47
2023-03-27T13:45:54.285Z,1.60
2023-03-27T13:49:06.093Z,1.83
2023-03-27T13:52:05.693Z,1.57
2023-03-27T13:54:45.411Z,1.73
2023-03-27T13:57:34.721Z,1.70
2023-03-27T14:00:27.559Z,1.70
2023-03-27T14:03:45.395Z,1.33
2023-03-27T14:07:06.216Z,1.70
2023-03-27T14:09:55.497Z,2.03
2023-03-27T14:12:32.545Z,1.70
2023-03-27T14:15:16.735Z,2.00
2023-03-27T14:17:57.098Z,1.87
2023-03-27T14:20:28.830Z,1.73
2023-03-27T14:23:03.444Z,1.90
2023-03-27T14:25:37.146Z,1.80
2023-03-27T14:28:25.856Z,1.53
2023-03-27T14:30:57.662Z,1.93
2023-03-27T14:33:29.329Z,1.67
2023-03-27T14:36:01.897Z,1.70
2023-03-27T14:38:34.637Z,1.47
2023-03-27T14:41:17.696Z,1.80
2023-03-27T14:43:49.654Z,1.67
2023-03-27T14:46:21.430Z,1.60
2023-03-27T14:48:53.887Z,1.77
2023-03-27T14:51:33.784Z,1.70
2023-03-27T14:54:06.754Z,2.03
2023-03-27T14:56:40.851Z,1.73
2023-03-27T14:59:16.851Z,2.20
2023-03-27T15:02:01.218Z,2.07
2023-03-27T15:04:33.049Z,2.00
2023-03-27T15:07:09.498Z,2.00
2023-03-27T15:09:41.348Z,2.47
2023-03-27T15:12:14.388Z,1.53
2023-03-27T15:14:46.252Z,1.40
2023-03-27T15:17:17.972Z,1.70
2023-03-27T15:19:50.494Z,1.73
2023-03-27T15:22:28.624Z,1.33
2023-03-27T15:25:01.684Z,1.63
2023-03-27T15:27:42.976Z,1.93
2023-03-27T15:30:20.932Z,1.43
2023-03-27T15:32:53.623Z,1.53
2023-03-27T15:35:27.249Z,1.53
2023-03-27T15:37:59.085Z,1.43
2023-03-27T15:40:32.445Z,1.50
2023-03-27T15:43:06.824Z,1.57
2023-03-27T15:45:39.683Z,1.80
2023-03-27T15:48:17.665Z,1.60
2023-03-27T15:50:59.057Z,1.33
2023-03-27T15:53:32.467Z,1.50
2023-03-27T15:56:05.911Z,1.47
2023-03-27T15:58:45.727Z,1.40
2023-03-27T16:01:19.883Z,1.50
2023-03-27T16:03:51.978Z,1.63
2023-03-27T16:06:28.390Z,2.23
2023-03-27T16:09:00.167Z,1.60
2023-03-27T16:11:38.461Z,1.70
2023-03-27T16:14:22.813Z,1.80
2023-03-27T16:17:08.205Z,1.50
2023-03-27T16:19:42.739Z,1.70
2023-03-27T16:22:15.201Z,1.60
2023-03-27T16:24:46.846Z,2.00
2023-03-27T16:27:18.814Z,1.77
2023-03-27T16:29:52.065Z,1.70
2023-03-27T16:32:23.718Z,2.13
2023-03-27T16:34:55.395Z,1.80
2023-03-27T16:37:27.200Z,1.47
2023-03-27T16:39:58.849Z,1.50
2023-03-27T16:42:30.488Z,1.97
2023-03-27T16:45:03.978Z,1.97
2023-03-27T16:47:35.683Z,1.43
2023-03-27T16:50:11.620Z,1.60
2023-03-27T16:52:43.613Z,1.60
2023-03-27T16:55:15.305Z,1.60
2023-03-27T16:57:46.983Z,2.00
2023-03-27T17:00:20.419Z,1.53
2023-03-27T17:02:52.119Z,1.60
2023-03-27T17:05:24.059Z,1.83
2023-03-27T17:07:55.730Z,1.77
2023-03-27T17:10:27.553Z,1.70
2023-03-27T17:12:59.183Z,1.70
2023-03-27T17:15:35.246Z,1.80
2023-03-27T17:18:06.957Z,1.60
2023-03-27T17:20:38.642Z,1.83
2023-03-27T17:23:10.957Z,1.83
2023-03-27T17:25:42.955Z,1.80
2023-03-27T17:28:14.641Z,1.80
2023-03-27T17:31:01.170Z,1.90
2023-03-27T17:33:35.399Z,2.00
2023-03-27T17:36:08.272Z,1.93
2023-03-27T17:38:40.051Z,2.00
2023-03-27T17:41:11.851Z,1.80
2023-03-27T17:43:43.555Z,1.90
2023-03-27T17:46:16.592Z,2.27
2023-03-27T17:48:48.302Z,1.77
2023-03-27T17:51:19.962Z,2.33
2023-03-27T17:53:51.617Z,1.90
2023-03-27T17:56:23.264Z,1.73
2023-03-27T17:58:54.898Z,1.70
2023-03-27T18:01:28.000Z,2.20
2023-03-27T18:03:59.736Z,2.47
2023-03-27T18:06:31.440Z,1.40
2023-03-27T18:09:03.133Z,2.07
2023-03-27T18:11:34.808Z,2.20
2023-03-27T18:14:06.579Z,2.37
2023-03-27T18:16:39.645Z,2.00
2023-03-27T18:19:11.429Z,2.10
2023-03-27T18:21:43.143Z,1.93
2023-03-27T18:24:14.837Z,1.90
2023-03-27T18:26:46.488Z,2.00
2023-03-27T18:29:18.161Z,1.83
2023-03-27T18:31:51.237Z,1.97
2023-03-27T18:34:22.905Z,2.10
2023-03-27T18:36:54.558Z,2.37
2023-03-27T18:39:26.199Z,1.90
2023-03-27T18:41:57.876Z,1.90
2023-03-27T18:44:29.520Z,2.33
2023-03-27T18:47:02.611Z,1.93
2023-03-27T18:49:34.289Z,2.00
2023-03-27T18:52:05.938Z,1.83
2023-03-27T18:54:37.612Z,2.27
2023-03-27T18:57:09.393Z,2.13
2023-03-27T18:59:41.055Z,2.00
2023-03-27T19:02:14.212Z,2.03
2023-03-27T19:04:45.977Z,1.70
2023-03-27T19:07:17.663Z,2.00
2023-03-27T19:09:49.279Z,2.17
2023-03-27T19:12:20.946Z,2.20
2023-03-27T19:14:52.593Z,1.80
2023-03-27T19:17:25.671Z,2.00
2023-03-27T19:19:57.340Z,1.90
2023-03-27T19:22:29.003Z,2.00
2023-03-27T19:25:00.649Z,2.00
2023-03-27T19:27:38.733Z,2.23
2023-03-27T19:30:11.982Z,2.20
2023-03-27T19:32:44.988Z,2.07
2023-03-27T19:35:16.763Z,2.50
2023-03-27T19:37:48.415Z,2.60
2023-03-27T19:40:20.058Z,2.13
2023-03-27T19:42:51.721Z,2.10
2023-03-27T19:45:23.364Z,2.57
2023-03-27T19:47:56.415Z,2.20
2023-03-27T19:50:28.082Z,2.20
2023-03-27T19:53:08.129Z,2.50
2023-03-27T19:55:41.390Z,2.53
2023-03-27T19:58:13.030Z,2.17
2023-03-27T20:00:44.689Z,2.70
2023-03-27T20:03:18.010Z,2.80
2023-03-27T20:05:50.581Z,2.30
2023-03-27T20:08:22.332Z,2.97
2023-03-27T20:10:54.022Z,2.57
2023-03-27T20:13:25.650Z,2.10
2023-03-27T20:15:57.507Z,2.40
2023-03-27T20:18:30.614Z,2.90
2023-03-27T20:21:02.354Z,2.67
2023-03-27T20:23:33.985Z,2.50
2023-03-27T20:26:05.627Z,2.60
2023-03-27T20:28:37.417Z,2.70
2023-03-27T20:31:09.102Z,2.80
2023-03-27T20:33:42.113Z,2.40
2023-03-27T20:36:13.970Z,2.53
2023-03-27T20:38:45.638Z,2.63
2023-03-27T20:41:17.314Z,2.67
2023-03-27T20:43:48.982Z,2.83
2023-03-27T20:46:20.651Z,2.87
2023-03-27T20:48:54.750Z,3.20
2023-03-27T20:51:26.406Z,2.70
2023-03-27T20:53:58.045Z,2.40
2023-03-27T20:56:29.712Z,2.40
2023-03-27T20:59:01.336Z,2.30
2023-03-27T21:01:32.994Z,2.50
2023-03-27T21:04:06.013Z,2.10
2023-03-27T21:06:37.903Z,3.03
2023-03-27T21:09:09.846Z,2.50
2023-03-27T21:11:41.517Z,2.30
2023-03-27T21:14:13.161Z,2.20
2023-03-27T21:16:44.864Z,2.27
2023-03-27T21:19:18.072Z,2.50
2023-03-27T21:21:49.837Z,2.30
2023-03-27T21:24:21.624Z,2.40
2023-03-27T21:26:53.287Z,2.20
2023-03-27T21:29:25.016Z,2.70
2023-03-27T21:31:56.763Z,2.17
2023-03-27T21:34:29.751Z,2.40
2023-03-27T21:37:01.502Z,2.23
2023-03-27T21:39:33.179Z,2.67
2023-03-27T21:42:04.963Z,3.17
2023-03-27T21:44:36.597Z,2.83
2023-03-27T21:47:08.254Z,2.57
2023-03-27T21:49:41.243Z,3.00
2023-03-27T21:52:12.886Z,2.10
2023-03-27T21:54:53.154Z,2.80
2023-03-27T21:57:33.958Z,2.27
